Time;durP1;ratioP1;P1;durP2;ratioP2;P2;SDS_P1;SDS_P2;PMS_P1;PMS_P2;Temp;Humidity;BMP_temperature;BMP_pressure;BME280_temperature;BME280_humidity;BME280_pressure;Samples;Min_cycle;Max_cycle;Signal;HPM_P1;HPM_P2
2022/04/24 00:02:25;;;;;;;7.60;6.13;;;9.90;99.90;;;;;;5094035;28;20505;-77
2022/04/24 00:04:52;;;;;;;7.60;6.63;;;9.90;99.90;;;;;;5094823;28;20479;-77
2022/04/24 00:07:18;;;;;;;8.33;6.30;;;9.90;99.90;;;;;;5093735;28;20446;-77
2022/04/24 00:09:46;;;;;;;7.37;6.67;;;9.90;99.90;;;;;;5094317;28;21122;-77
2022/04/24 00:12:15;;;;;;;7.57;6.80;;;9.90;99.90;;;;;;5102727;28;20482;-77
2022/04/24 00:14:42;;;;;;;7.00;6.30;;;9.80;99.90;;;;;;5100873;28;20491;-77
2022/04/24 00:17:09;;;;;;;8.33;6.27;;;9.80;99.90;;;;;;5095596;28;20468;-77
2022/04/24 00:19:36;;;;;;;6.83;6.10;;;9.80;99.90;;;;;;5105462;28;20989;-77
2022/04/24 00:22:02;;;;;;;6.53;5.93;;;9.80;99.90;;;;;;5107531;28;20502;-77
2022/04/24 00:24:31;;;;;;;12.13;6.57;;;9.80;99.90;;;;;;5108142;28;20488;-77
2022/04/24 00:26:59;;;;;;;12.50;7.53;;;9.70;99.90;;;;;;5102462;28;20465;-77
2022/04/24 00:29:26;;;;;;;10.20;7.30;;;9.70;99.90;;;;;;5094057;28;20467;-77
2022/04/24 00:31:52;;;;;;;6.87;6.17;;;9.70;99.90;;;;;;5105358;28;20502;-77
2022/04/24 00:34:19;;;;;;;8.00;7.10;;;9.70;99.90;;;;;;5099838;28;20442;-78
2022/04/24 00:36:46;;;;;;;13.53;6.03;;;9.60;99.90;;;;;;5106363;28;20489;-78
2022/04/24 00:39:12;;;;;;;7.70;7.00;;;9.60;99.90;;;;;;5097138;28;20446;-77
2022/04/24 00:41:45;;;;;;;10.00;6.60;;;9.60;99.90;;;;;;5100322;28;20454;-77
2022/04/24 00:44:13;;;;;;;7.53;6.10;;;9.50;99.90;;;;;;5093076;28;20528;-78
2022/04/24 00:46:42;;;;;;;7.07;6.37;;;9.50;99.90;;;;;;5095876;28;20458;-77
2022/04/24 00:49:09;;;;;;;9.00;7.30;;;9.50;99.90;;;;;;5093264;28;21053;-78
2022/04/24 00:51:37;;;;;;;6.53;5.80;;;9.50;99.90;;;;;;5094129;28;20507;-77
2022/04/24 00:54:05;;;;;;;7.97;7.03;;;9.50;99.90;;;;;;5105261;28;20898;-78
2022/04/24 00:56:33;;;;;;;6.90;6.20;;;9.40;99.90;;;;;;5108494;28;20499;-78
2022/04/24 00:59:00;;;;;;;6.83;6.10;;;9.40;99.90;;;;;;5106884;28;20455;-77
2022/04/24 01:01:28;;;;;;;6.90;6.20;;;9.40;99.90;;;;;;5102228;28;20456;-77
2022/04/24 01:04:00;;;;;;;9.47;6.60;;;9.40;99.90;;;;;;5106569;28;20446;-78
2022/04/24 01:06:27;;;;;;;6.70;5.93;;;9.40;99.90;;;;;;5093719;28;20451;-77
2022/04/24 01:08:54;;;;;;;7.00;6.30;;;9.40;99.90;;;;;;5093753;28;20454;-78
2022/04/24 01:11:20;;;;;;;9.90;6.80;;;9.40;99.90;;;;;;5094035;28;20479;-77
2022/04/24 01:13:47;;;;;;;7.03;6.30;;;9.30;99.90;;;;;;5101961;28;20804;-78
2022/04/24 01:16:14;;;;;;;6.63;6.00;;;9.30;99.90;;;;;;5094381;28;20438;-78
2022/04/24 01:18:43;;;;;;;8.97;6.87;;;9.30;99.90;;;;;;5093620;28;20454;-78
2022/04/24 01:21:11;;;;;;;7.30;6.50;;;9.30;99.90;;;;;;5101979;28;20519;-78
2022/04/24 01:23:39;;;;;;;12.27;6.77;;;9.20;99.90;;;;;;5108010;28;20446;-78
2022/04/24 01:26:06;;;;;;;7.47;6.77;;;9.20;99.90;;;;;;5106478;28;20572;-77
2022/04/24 01:28:32;;;;;;;7.03;6.30;;;9.20;99.90;;;;;;5093444;28;20508;-77
2022/04/24 01:30:59;;;;;;;8.53;6.83;;;9.20;99.90;;;;;;5099674;28;20469;-77
2022/04/24 01:33:27;;;;;;;7.10;6.40;;;9.20;99.90;;;;;;5107287;28;20973;-78
2022/04/24 01:35:53;;;;;;;9.13;6.77;;;9.20;99.90;;;;;;5107321;28;20453;-77
2022/04/24 01:38:21;;;;;;;8.50;6.90;;;9.20;99.90;;;;;;5105891;28;20500;-77
2022/04/24 01:40:48;;;;;;;9.50;7.77;;;9.20;99.90;;;;;;5104238;28;20461;-77
2022/04/24 01:43:16;;;;;;;6.97;6.27;;;9.20;99.90;;;;;;5097020;28;20947;-77
2022/04/24 01:45:42;;;;;;;6.83;6.13;;;9.20;99.90;;;;;;5093534;28;20474;-77
2022/04/24 01:48:09;;;;;;;10.90;6.53;;;9.20;99.90;;;;;;5104731;28;20520;-77
2022/04/24 01:50:36;;;;;;;9.23;6.80;;;9.20;99.90;;;;;;5107025;28;20985;-77
2022/04/24 01:53:03;;;;;;;7.30;6.60;;;9.20;99.90;;;;;;5095289;28;21079;-78
2022/04/24 01:55:31;;;;;;;6.67;6.00;;;9.30;99.90;;;;;;5092619;28;20450;-77
2022/04/24 01:57:57;;;;;;;6.77;6.10;;;9.30;99.90;;;;;;5098424;28;20526;-78
2022/04/24 02:00:24;;;;;;;8.73;6.73;;;9.30;99.90;;;;;;5106922;28;20805;-77
2022/04/24 02:02:51;;;;;;;13.33;7.73;;;9.40;99.90;;;;;;5101784;28;20451;-78
2022/04/24 02:05:18;;;;;;;7.10;6.40;;;9.40;99.90;;;;;;5093561;28;20477;-78
2022/04/24 02:07:44;;;;;;;8.37;7.47;;;9.40;99.90;;;;;;5093029;28;20450;-78
2022/04/24 02:10:11;;;;;;;9.13;7.03;;;9.40;99.90;;;;;;5093987;28;20473;-77
2022/04/24 02:12:40;;;;;;;8.63;7.30;;;9.50;99.90;;;;;;5092649;28;20519;-77
2022/04/24 02:15:08;;;;;;;8.67;7.10;;;9.50;99.90;;;;;;5097166;28;20457;-78
2022/04/24 02:17:35;;;;;;;8.33;7.53;;;9.50;99.90;;;;;;5092787;28;20450;-78
2022/04/24 02:20:01;;;;;;;11.60;7.30;;;9.60;99.90;;;;;;5094901;28;20857;-77
2022/04/24 02:22:32;;;;;;;8.13;7.20;;;9.60;99.90;;;;;;5101851;28;20453;-78
2022/04/24 02:24:59;;;;;;;9.33;6.77;;;9.60;99.90;;;;;;5105732;28;20490;-78
2022/04/24 02:27:26;;;;;;;8.20;6.90;;;9.60;99.90;;;;;;5099409;28;20520;-78
2022/04/24 02:29:54;;;;;;;7.73;6.90;;;9.60;99.90;;;;;;5092841;28;20474;-78
2022/04/24 02:32:21;;;;;;;13.10;7.30;;;9.70;99.90;;;;;;5093704;28;20450;-78
2022/04/24 02:34:47;;;;;;;10.33;7.43;;;9.70;99.90;;;;;;5092378;28;20500;-78
2022/04/24 02:37:14;;;;;;;8.13;7.33;;;9.70;99.90;;;;;;5093679;28;21007;-78
2022/04/24 02:39:41;;;;;;;8.53;7.43;;;9.70;99.90;;;;;;5096591;28;20487;-78
2022/04/24 02:42:08;;;;;;;7.67;6.80;;;9.70;99.90;;;;;;5093596;28;21011;-78
2022/04/24 02:44:34;;;;;;;9.10;7.20;;;9.70;99.90;;;;;;5097494;28;20447;-78
2022/04/24 02:47:02;;;;;;;11.47;7.97;;;9.70;99.90;;;;;;5099369;28;20854;-78
2022/04/24 02:49:29;;;;;;;13.53;7.83;;;9.80;99.90;;;;;;5107007;28;20510;-78
2022/04/24 02:51:56;;;;;;;8.53;7.30;;;9.80;99.90;;;;;;5106841;28;20503;-78
2022/04/24 02:54:23;;;;;;;9.57;7.90;;;9.80;99.90;;;;;;5105132;28;20512;-77
2022/04/24 02:56:49;;;;;;;7.63;6.83;;;9.80;99.90;;;;;;5107147;28;21003;-78
2022/04/24 02:59:16;;;;;;;8.60;7.23;;;9.80;99.90;;;;;;5104655;28;20466;-77
2022/04/24 03:01:44;;;;;;;11.03;8.00;;;9.80;99.90;;;;;;5106836;28;21029;-77
2022/04/24 03:04:12;;;;;;;8.10;7.30;;;9.80;99.90;;;;;;5107166;28;20457;-77
2022/04/24 03:06:39;;;;;;;8.27;6.90;;;9.80;99.90;;;;;;5106529;28;20515;-77
2022/04/24 03:09:06;;;;;;;9.83;7.33;;;9.80;99.90;;;;;;5107632;28;20506;-77
2022/04/24 03:11:32;;;;;;;8.33;7.20;;;9.80;99.90;;;;;;5095970;28;20493;-78
2022/04/24 03:13:59;;;;;;;10.53;7.53;;;9.80;99.90;;;;;;5095144;28;20508;-78
2022/04/24 03:16:26;;;;;;;9.93;7.90;;;9.80;99.90;;;;;;5097075;28;20446;-78
2022/04/24 03:18:53;;;;;;;10.00;7.90;;;9.80;99.90;;;;;;5096185;28;20455;-77
2022/04/24 03:21:21;;;;;;;9.93;7.40;;;9.80;99.90;;;;;;5097085;28;20478;-77
2022/04/24 03:23:47;;;;;;;9.97;7.60;;;9.80;99.90;;;;;;5099574;28;20511;-78
2022/04/24 03:26:14;;;;;;;8.60;7.70;;;9.80;99.90;;;;;;5098970;28;20478;-77
2022/04/24 03:28:41;;;;;;;11.60;8.63;;;9.80;99.90;;;;;;5095575;28;20453;-78
2022/04/24 03:31:07;;;;;;;9.70;7.47;;;9.70;99.90;;;;;;5095971;28;20516;-78
2022/04/24 03:33:34;;;;;;;8.80;7.90;;;9.70;99.90;;;;;;5103363;28;20522;-78
2022/04/24 03:36:01;;;;;;;8.30;7.50;;;9.70;99.90;;;;;;5108520;28;21014;-78
2022/04/24 03:38:29;;;;;;;10.50;7.73;;;9.70;99.90;;;;;;5110359;28;20803;-77
2022/04/24 03:40:56;;;;;;;9.27;7.60;;;9.70;99.90;;;;;;5111313;28;20993;-77
2022/04/24 03:43:23;;;;;;;8.90;8.00;;;9.60;99.90;;;;;;5104636;28;20447;-79
2022/04/24 03:45:50;;;;;;;10.53;8.60;;;9.60;99.90;;;;;;5102016;28;21085;-77
2022/04/24 03:48:16;;;;;;;11.13;8.90;;;9.60;99.90;;;;;;5094842;28;20449;-77
2022/04/24 03:50:43;;;;;;;9.60;8.43;;;9.60;99.90;;;;;;5095095;28;20463;-78
2022/04/24 03:53:10;;;;;;;11.70;8.70;;;9.60;99.90;;;;;;5095612;28;20515;-78
2022/04/24 03:55:38;;;;;;;9.40;8.50;;;9.60;99.90;;;;;;5094680;28;20542;-77
2022/04/24 03:58:05;;;;;;;10.03;8.90;;;9.50;99.90;;;;;;5095185;28;20821;-77
2022/04/24 04:00:31;;;;;;;9.97;8.60;;;9.60;99.90;;;;;;5108946;28;20576;-77
2022/04/24 04:02:58;;;;;;;9.43;7.97;;;9.50;99.90;;;;;;5109271;28;20506;-77
2022/04/24 04:05:25;;;;;;;12.10;9.10;;;9.50;99.90;;;;;;5100828;28;21002;-77
2022/04/24 04:07:52;;;;;;;17.80;9.20;;;9.50;99.90;;;;;;5109366;28;20457;-77
2022/04/24 04:10:19;;;;;;;9.07;8.17;;;9.50;99.90;;;;;;5107219;28;20558;-77
2022/04/24 04:12:47;;;;;;;10.10;8.70;;;9.50;99.90;;;;;;5105110;28;20458;-78
2022/04/24 04:15:13;;;;;;;12.10;8.23;;;9.50;99.90;;;;;;5094729;28;20463;-77
2022/04/24 04:17:40;;;;;;;10.63;8.67;;;9.50;99.90;;;;;;5094830;28;20512;-77
2022/04/24 04:20:11;;;;;;;12.43;9.60;;;9.40;99.90;;;;;;5094475;28;20726;-77
2022/04/24 04:22:51;;;;;;;16.47;9.57;;;9.40;99.90;;;;;;5096968;28;20453;-77
2022/04/24 04:25:18;;;;;;;11.90;9.07;;;9.40;99.90;;;;;;5106612;28;20522;-77
2022/04/24 04:27:44;;;;;;;10.00;8.90;;;9.40;99.90;;;;;;5099834;28;20455;-77
2022/04/24 04:30:13;;;;;;;11.63;9.97;;;9.40;99.90;;;;;;5094911;28;20505;-77
2022/04/24 04:32:39;;;;;;;10.97;9.33;;;9.40;99.90;;;;;;5094278;28;21007;-77
2022/04/24 04:35:09;;;;;;;11.70;9.50;;;9.40;99.90;;;;;;5093543;28;20454;-77
2022/04/24 04:37:36;;;;;;;14.70;10.40;;;9.40;99.90;;;;;;5102521;28;20450;-77
2022/04/24 04:40:04;;;;;;;13.30;9.53;;;9.40;99.90;;;;;;5101932;28;20516;-77
2022/04/24 04:42:31;;;;;;;13.20;10.10;;;9.40;99.90;;;;;;5094955;28;20453;-77
2022/04/24 04:45:00;;;;;;;11.83;9.57;;;9.40;99.90;;;;;;5093216;28;20531;-77
2022/04/24 04:47:28;;;;;;;14.93;10.60;;;9.40;99.90;;;;;;5097796;28;21304;-77
2022/04/24 04:49:55;;;;;;;11.30;9.20;;;9.40;99.90;;;;;;5093565;28;20466;-77
2022/04/24 04:52:22;;;;;;;11.30;10.10;;;9.40;99.90;;;;;;5098698;28;20503;-77
2022/04/24 04:54:49;;;;;;;12.00;10.00;;;9.50;99.90;;;;;;5096935;28;21012;-77
2022/04/24 04:57:16;;;;;;;12.13;10.53;;;9.50;99.90;;;;;;5094804;28;20504;-77
2022/04/24 04:59:42;;;;;;;16.97;10.40;;;9.50;99.90;;;;;;5097548;28;20470;-77
2022/04/24 05:02:09;;;;;;;13.30;10.60;;;9.50;99.90;;;;;;5100078;28;20950;-77
2022/04/24 05:04:38;;;;;;;12.40;10.50;;;9.50;99.90;;;;;;5092879;28;20872;-77
2022/04/24 05:07:05;;;;;;;16.07;10.70;;;9.50;99.90;;;;;;5093550;28;20486;-77
2022/04/24 05:09:32;;;;;;;14.10;10.97;;;9.50;99.90;;;;;;5094174;28;20871;-77
2022/04/24 05:11:59;;;;;;;12.67;10.77;;;9.50;99.90;;;;;;5093375;28;20454;-77
2022/04/24 05:14:25;;;;;;;14.47;11.00;;;9.50;99.90;;;;;;5093670;28;20514;-77
2022/04/24 05:16:52;;;;;;;12.87;10.30;;;9.50;99.90;;;;;;5099091;28;20455;-77
2022/04/24 05:19:19;;;;;;;14.23;10.80;;;9.50;99.90;;;;;;5094005;28;22816;-77
2022/04/24 05:21:47;;;;;;;12.93;10.10;;;9.50;99.90;;;;;;5093745;28;20504;-77
2022/04/24 05:24:13;;;;;;;13.80;11.27;;;9.50;99.90;;;;;;5092820;28;20443;-77
2022/04/24 05:26:40;;;;;;;15.87;11.70;;;9.50;99.90;;;;;;5095596;28;20611;-77
2022/04/24 05:29:07;;;;;;;14.33;11.40;;;9.50;99.90;;;;;;5093090;28;20451;-77
2022/04/24 05:31:34;;;;;;;13.90;11.23;;;9.50;99.90;;;;;;5097557;28;20499;-77
2022/04/24 05:34:01;;;;;;;15.03;10.90;;;9.60;99.90;;;;;;5098125;28;20485;-77
2022/04/24 05:36:27;;;;;;;15.03;10.93;;;9.60;99.90;;;;;;5094265;28;20442;-77
2022/04/24 05:38:55;;;;;;;13.47;11.03;;;9.60;99.90;;;;;;5093374;28;20451;-77
2022/04/24 05:41:22;;;;;;;14.17;11.53;;;9.60;99.90;;;;;;5093934;28;20531;-77
2022/04/24 05:43:48;;;;;;;17.50;12.23;;;9.60;99.90;;;;;;5095156;28;20451;-78
2022/04/24 05:46:15;;;;;;;14.90;12.20;;;9.70;99.90;;;;;;5098128;28;20515;-77
2022/04/24 05:48:42;;;;;;;14.13;11.53;;;9.70;99.90;;;;;;5092923;28;20459;-77
2022/04/24 05:51:08;;;;;;;14.93;11.90;;;9.70;99.90;;;;;;5098482;28;20470;-78
2022/04/24 05:53:35;;;;;;;13.93;11.90;;;9.70;99.90;;;;;;5104177;28;20890;-77
2022/04/24 05:56:03;;;;;;;15.07;11.57;;;9.70;99.90;;;;;;5092911;28;20868;-77
2022/04/24 05:58:30;;;;;;;13.40;11.97;;;9.70;99.90;;;;;;5098837;28;20937;-77
2022/04/24 06:00:56;;;;;;;13.23;11.13;;;9.80;99.90;;;;;;5100527;28;20478;-77
2022/04/24 06:03:23;;;;;;;17.30;12.03;;;9.80;99.90;;;;;;5105166;28;20453;-77
2022/04/24 06:05:50;;;;;;;16.90;12.50;;;9.80;99.90;;;;;;5107258;28;20510;-77
2022/04/24 06:08:16;;;;;;;14.70;12.53;;;9.80;99.90;;;;;;5105867;28;20450;-77
2022/04/24 06:10:43;;;;;;;20.93;13.17;;;9.90;99.90;;;;;;5092734;28;20467;-78
2022/04/24 06:13:11;;;;;;;16.07;13.63;;;9.90;99.90;;;;;;5097303;28;20479;-77
2022/04/24 06:15:40;;;;;;;19.20;14.43;;;9.90;99.90;;;;;;5107009;28;20510;-77
2022/04/24 06:18:06;;;;;;;17.87;14.17;;;9.90;99.90;;;;;;5102735;28;20461;-77
2022/04/24 06:20:33;;;;;;;16.50;12.70;;;10.00;99.90;;;;;;5105237;28;20531;-77
2022/04/24 06:23:00;;;;;;;17.20;12.80;;;10.00;99.90;;;;;;5095870;28;20512;-77
2022/04/24 06:25:29;;;;;;;16.90;13.50;;;10.10;99.90;;;;;;5093113;28;20936;-77
2022/04/24 06:27:55;;;;;;;19.43;14.13;;;10.10;99.90;;;;;;5106414;28;20903;-79
2022/04/24 06:30:25;;;;;;;17.40;13.30;;;10.20;99.90;;;;;;5108414;28;20501;-78
2022/04/24 06:32:52;;;;;;;15.60;13.03;;;10.40;99.90;;;;;;5102736;28;20869;-78
2022/04/24 06:35:19;;;;;;;15.53;12.50;;;10.60;99.90;;;;;;5097357;28;20458;-79
2022/04/24 06:37:47;;;;;;;17.63;13.67;;;10.70;99.90;;;;;;5097300;28;20451;-78
2022/04/24 06:40:16;;;;;;;19.80;13.83;;;10.70;99.90;;;;;;5098810;28;20482;-78
2022/04/24 06:42:50;;;;;;;15.77;12.80;;;10.80;99.90;;;;;;5099410;27;20523;-79
2022/04/24 06:45:18;;;;;;;17.07;12.50;;;10.80;99.90;;;;;;5100665;28;20503;-79
2022/04/24 06:47:46;;;;;;;16.23;12.90;;;10.90;99.90;;;;;;5103150;28;20486;-79
2022/04/24 06:50:13;;;;;;;17.87;13.23;;;11.00;99.90;;;;;;5099784;28;20496;-78
2022/04/24 06:52:40;;;;;;;20.70;13.60;;;11.20;99.90;;;;;;5101672;28;20605;-78
2022/04/24 06:55:07;;;;;;;18.73;13.77;;;11.40;99.90;;;;;;5113290;28;20453;-78
2022/04/24 06:57:34;;;;;;;16.33;13.50;;;11.50;99.90;;;;;;5100088;28;20923;-78
2022/04/24 07:00:01;;;;;;;16.37;12.60;;;11.40;99.90;;;;;;5104234;28;21132;-79
2022/04/24 07:02:27;;;;;;;18.23;13.90;;;11.60;99.90;;;;;;5105779;28;20462;-78
2022/04/24 07:04:56;;;;;;;15.90;13.47;;;11.90;99.90;;;;;;5114235;28;20457;-79
2022/04/24 07:07:22;;;;;;;16.20;13.20;;;12.10;99.90;;;;;;5103166;28;20896;-78
2022/04/24 07:09:49;;;;;;;20.10;13.80;;;12.20;99.90;;;;;;5101950;28;20466;-78
2022/04/24 07:12:15;;;;;;;17.47;13.50;;;12.20;99.90;;;;;;5115211;28;20438;-78
2022/04/24 07:14:42;;;;;;;17.20;13.83;;;12.50;99.90;;;;;;5109492;28;20450;-78
2022/04/24 07:17:09;;;;;;;19.13;13.40;;;12.90;99.90;;;;;;5096057;28;20854;-78
2022/04/24 07:19:35;;;;;;;19.27;13.80;;;13.20;99.90;;;;;;5098927;28;20495;-78
2022/04/24 07:22:04;;;;;;;17.07;14.00;;;13.40;99.90;;;;;;5109909;28;20531;-78
2022/04/24 07:24:30;;;;;;;15.07;12.60;;;13.50;99.90;;;;;;5108774;28;20511;-78
2022/04/24 07:26:57;;;;;;;16.67;13.37;;;13.60;99.90;;;;;;5109406;28;20955;-78
2022/04/24 07:29:24;;;;;;;15.90;13.53;;;13.80;99.90;;;;;;5101576;28;20470;-78
2022/04/24 07:31:51;;;;;;;13.80;12.33;;;14.00;99.90;;;;;;5100022;28;20450;-81
2022/04/24 07:34:17;;;;;;;18.43;13.67;;;14.20;99.90;;;;;;5098198;28;20533;-78
2022/04/24 07:36:44;;;;;;;16.40;12.73;;;14.30;99.90;;;;;;5098746;28;20449;-78
2022/04/24 07:39:14;;;;;;;16.10;12.43;;;14.30;99.90;;;;;;5098581;28;20872;-78
2022/04/24 07:41:40;;;;;;;17.33;13.30;;;14.50;99.90;;;;;;5110953;28;20508;-78
2022/04/24 07:44:08;;;;;;;15.27;13.20;;;14.40;99.90;;;;;;5101917;28;20454;-78
2022/04/24 07:46:34;;;;;;;15.30;13.43;;;14.30;99.90;;;;;;5109661;28;20478;-78
2022/04/24 07:49:02;;;;;;;18.33;13.80;;;14.10;99.90;;;;;;5105066;28;20450;-76
2022/04/24 07:51:29;;;;;;;18.03;13.10;;;13.90;99.90;;;;;;5103577;28;20982;-77
2022/04/24 07:53:55;;;;;;;16.07;13.10;;;14.00;99.90;;;;;;5091239;28;20517;-77
2022/04/24 07:56:23;;;;;;;14.57;12.97;;;14.20;99.90;;;;;;5096220;28;20473;-77
2022/04/24 07:58:50;;;;;;;18.77;15.00;;;14.30;99.90;;;;;;5097042;28;20469;-76
2022/04/24 08:01:17;;;;;;;16.47;13.40;;;14.10;99.90;;;;;;5097891;28;20890;-77
2022/04/24 08:03:44;;;;;;;19.27;13.67;;;14.10;99.90;;;;;;5098969;28;20454;-77
2022/04/24 08:06:11;;;;;;;17.77;14.90;;;14.10;99.90;;;;;;5109148;28;20454;-77
2022/04/24 08:08:37;;;;;;;16.57;13.50;;;13.80;99.90;;;;;;5101579;28;20454;-77
2022/04/24 08:11:04;;;;;;;24.13;14.93;;;13.60;99.90;;;;;;5101487;28;20474;-77
2022/04/24 08:13:32;;;;;;;16.00;13.63;;;13.70;99.90;;;;;;5095324;28;20508;-77
2022/04/24 08:16:01;;;;;;;20.67;14.30;;;13.60;99.90;;;;;;5117937;28;20452;-77
2022/04/24 08:18:28;;;;;;;16.80;14.10;;;13.60;99.90;;;;;;5104171;27;20959;-78
2022/04/24 08:20:54;;;;;;;17.90;13.93;;;13.70;99.90;;;;;;5107897;28;20462;-78
2022/04/24 08:23:21;;;;;;;19.57;13.70;;;13.80;99.90;;;;;;5102157;28;20451;-80
2022/04/24 08:25:48;;;;;;;18.67;14.80;;;13.80;99.90;;;;;;5100927;28;20499;-80
2022/04/24 08:28:15;;;;;;;17.57;14.00;;;13.80;99.90;;;;;;5110843;28;20488;-80
2022/04/24 08:30:45;;;;;;;18.20;14.17;;;13.60;99.90;;;;;;5115291;28;20473;-79
2022/04/24 08:33:13;;;;;;;18.77;14.37;;;13.40;99.90;;;;;;5100939;28;20960;-80
2022/04/24 08:35:41;;;;;;;19.17;14.70;;;13.30;99.90;;;;;;5101475;28;20451;-80
2022/04/24 08:38:08;;;;;;;18.03;14.40;;;13.60;99.90;;;;;;5102551;28;20963;-80
2022/04/24 08:40:35;;;;;;;22.77;14.87;;;13.80;99.90;;;;;;5112127;28;20461;-79
2022/04/24 08:43:03;;;;;;;18.30;13.70;;;14.00;99.90;;;;;;5113822;28;20450;-81
2022/04/24 08:45:31;;;;;;;18.23;12.90;;;14.30;99.90;;;;;;5112728;28;20455;-80
2022/04/24 08:48:00;;;;;;;17.03;13.60;;;14.30;99.90;;;;;;5113506;28;20489;-80
2022/04/24 08:50:29;;;;;;;17.07;14.27;;;14.40;99.90;;;;;;5113233;28;20496;-79
2022/04/24 08:52:57;;;;;;;16.93;14.50;;;14.60;99.90;;;;;;5105878;28;20515;-81
2022/04/24 08:55:26;;;;;;;18.00;13.47;;;14.70;99.90;;;;;;5112768;28;20474;-77
2022/04/24 08:57:53;;;;;;;16.33;13.70;;;14.80;99.90;;;;;;5101993;28;20443;-77
2022/04/24 09:00:20;;;;;;;19.03;14.17;;;14.70;99.90;;;;;;5100416;28;20469;-77
2022/04/24 09:02:47;;;;;;;17.87;14.70;;;14.80;99.90;;;;;;5110135;28;20491;-77
2022/04/24 09:05:15;;;;;;;22.20;13.70;;;14.80;99.90;;;;;;5093108;28;20515;-76
2022/04/24 09:07:43;;;;;;;17.50;14.50;;;15.00;99.90;;;;;;5093402;28;20989;-76
2022/04/24 09:10:12;;;;;;;15.70;13.20;;;15.00;99.90;;;;;;5104103;28;20474;-79
2022/04/24 09:12:40;;;;;;;21.23;13.10;;;15.00;99.90;;;;;;5115704;28;20485;-79
2022/04/24 09:15:08;;;;;;;18.93;13.77;;;15.00;99.90;;;;;;5092922;28;20504;-77
2022/04/24 09:17:36;;;;;;;18.60;13.87;;;14.80;99.90;;;;;;5091529;28;20500;-78
2022/04/24 09:20:16;;;;;;;18.70;14.43;;;14.60;99.90;;;;;;5102765;28;20984;-77
2022/04/24 09:22:44;;;;;;;18.03;14.10;;;14.30;99.90;;;;;;5112144;28;20438;-77
2022/04/24 09:25:12;;;;;;;17.90;13.90;;;14.20;99.90;;;;;;5111767;28;20454;-76
2022/04/24 09:27:39;;;;;;;20.20;13.57;;;14.10;99.90;;;;;;5113500;28;20485;-78
2022/04/24 09:30:11;;;;;;;17.73;13.77;;;14.10;99.90;;;;;;5107029;28;20503;-78
2022/04/24 09:32:45;;;;;;;16.20;13.43;;;14.20;99.90;;;;;;5113567;28;20431;-78
2022/04/24 09:35:24;;;;;;;17.23;13.50;;;14.10;99.90;;;;;;5103123;28;20450;-79
2022/04/24 09:37:51;;;;;;;15.60;13.20;;;14.10;99.90;;;;;;5094982;28;20476;-76
2022/04/24 09:40:19;;;;;;;15.77;13.00;;;14.20;99.90;;;;;;5104553;28;20818;-76
2022/04/24 09:42:53;;;;;;;17.33;13.70;;;14.20;99.90;;;;;;5103937;28;20455;-81
2022/04/24 09:45:24;;;;;;;20.60;13.93;;;14.30;99.90;;;;;;5100715;28;20595;-80
2022/04/24 09:47:58;;;;;;;17.50;13.90;;;14.30;99.90;;;;;;5116105;28;20862;-80
2022/04/24 09:50:25;;;;;;;16.10;13.03;;;14.20;99.90;;;;;;5113490;28;20511;-81
2022/04/24 09:52:53;;;;;;;14.90;11.53;;;14.10;99.90;;;;;;5094984;28;20431;-79
2022/04/24 09:55:22;;;;;;;15.43;12.10;;;13.90;99.90;;;;;;5094992;28;20450;-81
2022/04/24 09:57:49;;;;;;;15.87;12.10;;;13.80;99.90;;;;;;5103321;28;20525;-80
2022/04/24 10:00:18;;;;;;;16.27;12.00;;;13.80;99.90;;;;;;5113914;28;20516;-78
2022/04/24 10:02:45;;;;;;;15.57;12.00;;;13.90;99.90;;;;;;5110636;28;20494;-79
2022/04/24 10:05:12;;;;;;;13.37;10.93;;;13.90;99.90;;;;;;5110606;28;20431;-75
2022/04/24 10:07:40;;;;;;;15.40;11.83;;;14.00;99.90;;;;;;5109591;28;20485;-75
2022/04/24 10:10:09;;;;;;;13.83;11.60;;;14.00;99.90;;;;;;5109856;28;20485;-75
2022/04/24 10:12:35;;;;;;;14.13;11.60;;;14.00;99.90;;;;;;5111256;28;20442;-75
2022/04/24 10:15:05;;;;;;;16.43;11.67;;;14.00;99.90;;;;;;5112761;28;20434;-75
2022/04/24 10:18:16;;;;;;;13.47;11.50;;;13.90;99.90;;;;;;5094943;28;20446;-75
2022/04/24 10:20:51;;;;;;;11.57;10.37;;;13.70;99.90;;;;;;5094640;28;20535;-75
2022/04/24 10:23:28;;;;;;;16.15;10.50;;;13.70;99.90;;;;;;5105229;28;20493;-75
2022/04/24 10:25:56;;;;;;;13.07;11.13;;;13.70;99.90;;;;;;5096678;28;20246;-75
2022/04/24 10:28:23;;;;;;;13.83;11.33;;;13.70;99.90;;;;;;5106661;28;20535;-75
2022/04/24 10:30:59;;;;;;;17.67;11.50;;;13.80;99.90;;;;;;5111469;28;20527;-76
2022/04/24 10:33:28;;;;;;;13.33;11.70;;;13.70;99.90;;;;;;5113281;28;20453;-75
2022/04/24 10:35:59;;;;;;;13.97;10.80;;;13.70;99.90;;;;;;5114838;28;20848;-75
2022/04/24 10:38:27;;;;;;;17.67;11.80;;;13.80;99.90;;;;;;5103225;28;20454;-75
2022/04/24 10:41:03;;;;;;;13.90;11.23;;;13.80;99.90;;;;;;5094203;28;20511;-74
2022/04/24 10:43:37;;;;;;;13.03;11.63;;;13.80;99.90;;;;;;5093377;28;20811;-74
2022/04/24 10:46:15;;;;;;;13.57;11.33;;;13.80;99.90;;;;;;5094152;28;20465;-74
2022/04/24 10:48:42;;;;;;;14.73;11.63;;;13.90;99.90;;;;;;5092957;28;20609;-75
2022/04/24 10:51:08;;;;;;;15.40;11.33;;;13.90;99.90;;;;;;5093794;28;20478;-75
2022/04/24 10:53:49;;;;;;;20.07;13.20;;;14.00;99.90;;;;;;5102639;28;20506;-75
2022/04/24 10:56:17;;;;;;;15.60;12.43;;;14.10;99.90;;;;;;5114257;28;20536;-75
2022/04/24 10:58:44;;;;;;;15.03;12.53;;;14.10;99.90;;;;;;5113779;28;20529;-74
2022/04/24 11:01:14;;;;;;;20.93;13.53;;;14.10;99.90;;;;;;5096702;28;20878;-74
2022/04/24 11:03:43;;;;;;;15.97;12.97;;;14.00;99.90;;;;;;5092979;28;20561;-75
2022/04/24 11:06:20;;;;;;;17.40;13.30;;;14.00;99.90;;;;;;5093910;28;20446;-75
2022/04/24 11:08:47;;;;;;;17.73;12.30;;;14.00;99.90;;;;;;5093363;28;20478;-74
2022/04/24 11:11:14;;;;;;;19.10;12.50;;;14.00;99.90;;;;;;5093528;28;20525;-75
2022/04/24 11:13:43;;;;;;;15.17;12.60;;;14.00;99.90;;;;;;5108015;28;20532;-74
2022/04/24 11:16:11;;;;;;;17.70;12.83;;;14.00;99.90;;;;;;5113981;28;20446;-75
2022/04/24 11:18:38;;;;;;;19.57;13.40;;;14.00;99.90;;;;;;5113831;28;20922;-74
2022/04/24 11:21:06;;;;;;;19.17;13.60;;;13.90;99.90;;;;;;5112940;28;20461;-74
2022/04/24 11:23:35;;;;;;;16.07;12.90;;;13.90;99.90;;;;;;5111471;28;20454;-74
2022/04/24 11:26:05;;;;;;;18.20;14.30;;;13.80;99.90;;;;;;5109661;27;20541;-73
2022/04/24 11:28:39;;;;;;;16.27;12.60;;;13.80;99.90;;;;;;5085516;28;20489;-75
2022/04/24 11:31:16;;;;;;;17.90;14.40;;;13.80;99.90;;;;;;5084447;28;20470;-74
2022/04/24 11:33:58;;;;;;;20.33;14.97;;;13.70;99.90;;;;;;5080066;28;20447;-73
2022/04/24 11:36:35;;;;;;;21.30;14.13;;;13.60;99.90;;;;;;5072849;28;20459;-73
2022/04/24 11:39:04;;;;;;;22.50;14.00;;;13.60;99.90;;;;;;5072536;28;20443;-73
2022/04/24 11:41:32;;;;;;;19.77;14.23;;;13.50;99.90;;;;;;5071082;28;20944;-74
2022/04/24 11:44:02;;;;;;;18.90;14.20;;;13.50;99.90;;;;;;5073678;28;20447;-73
2022/04/24 11:52:02;;;;;;;17.10;13.03;;;13.40;99.90;;;;;;5075313;28;20517;-73
2022/04/24 11:54:29;;;;;;;17.30;13.20;;;13.40;99.90;;;;;;5071212;28;20876;-73
2022/04/24 11:56:56;;;;;;;15.73;12.50;;;13.50;99.90;;;;;;5070972;28;20512;-74
2022/04/24 11:59:23;;;;;;;19.97;12.60;;;13.40;99.90;;;;;;5072482;28;20479;-73
2022/04/24 12:01:59;;;;;;;18.30;12.90;;;13.50;99.90;;;;;;5071424;28;20477;-73
2022/04/24 12:04:31;;;;;;;17.43;12.03;;;13.50;99.90;;;;;;5070999;28;20528;-73
2022/04/24 12:07:02;;;;;;;16.90;12.00;;;13.50;99.90;;;;;;5071327;28;20475;-74
2022/04/24 12:09:29;;;;;;;14.63;11.13;;;13.50;99.90;;;;;;5070959;28;20905;-73
2022/04/24 12:12:10;;;;;;;14.40;10.77;;;13.50;99.90;;;;;;5071593;28;20447;-73
2022/04/24 12:14:37;;;;;;;13.10;10.87;;;13.40;99.90;;;;;;5070649;28;20804;-74
2022/04/24 12:17:07;;;;;;;12.50;10.90;;;13.50;99.90;;;;;;5070957;28;20444;-74
2022/04/24 12:19:34;;;;;;;14.33;11.20;;;13.40;99.90;;;;;;5072031;28;21045;-74
2022/04/24 12:22:06;;;;;;;13.37;10.00;;;13.40;99.90;;;;;;5079247;28;20483;-73
2022/04/24 12:24:41;;;;;;;15.70;11.90;;;13.40;99.90;;;;;;5090699;28;20466;-73
2022/04/24 12:27:10;;;;;;;13.73;11.07;;;13.40;99.90;;;;;;5084631;28;20469;-73
2022/04/24 12:29:41;;;;;;;13.53;10.70;;;13.40;99.90;;;;;;5088320;28;20615;-73
2022/04/24 12:32:12;;;;;;;11.60;10.40;;;13.30;99.90;;;;;;5070380;28;20509;-76
2022/04/24 12:34:40;;;;;;;23.17;11.27;;;13.40;99.90;;;;;;5070140;28;20811;-74
2022/04/24 12:37:07;;;;;;;11.87;10.10;;;13.20;99.90;;;;;;5070919;28;20512;-74
2022/04/24 12:39:33;;;;;;;12.00;9.93;;;13.20;99.90;;;;;;5086972;28;20433;-74
2022/04/24 12:42:11;;;;;;;15.07;11.20;;;13.20;99.90;;;;;;5091089;28;20283;-74
2022/04/24 12:44:39;;;;;;;14.17;10.77;;;13.30;99.90;;;;;;5089760;28;20482;-74
2022/04/24 12:47:05;;;;;;;14.37;11.70;;;13.30;99.90;;;;;;5090726;28;21023;-75
2022/04/24 12:49:33;;;;;;;13.97;10.57;;;13.40;99.90;;;;;;5090948;28;20516;-75